Time;durP1;ratioP1;P1;durP2;ratioP2;P2;SDS_P1;SDS_P2;PMS_P1;PMS_P2;Temp;Humidity;BMP_temperature;BMP_pressure;BME280_temperature;BME280_humidity;BME280_pressure;Samples;Min_cycle;Max_cycle;Signal;HPM_P1;HPM_P2
2023/06/15 00:00:08;;;;;;;8.68;4.70;;;15.40;99.90;;;;;;5083390;28;20097;-86
2023/06/15 00:02:34;;;;;;;6.80;3.88;;;15.40;99.90;;;;;;5080606;28;20034;-86
2023/06/15 00:05:00;;;;;;;7.00;4.00;;;15.40;99.90;;;;;;5075178;28;20036;-85
2023/06/15 00:07:25;;;;;;;6.07;3.95;;;15.40;99.90;;;;;;5076268;28;20035;-85
2023/06/15 00:09:51;;;;;;;12.73;4.90;;;15.50;99.90;;;;;;5068667;28;20039;-86
2023/06/15 00:12:17;;;;;;;15.02;4.60;;;15.40;99.90;;;;;;5074328;28;20032;-86
2023/06/15 00:14:42;;;;;;;9.30;3.67;;;15.40;99.90;;;;;;5079806;28;20036;-85
2023/06/15 00:17:08;;;;;;;6.93;3.80;;;15.40;99.90;;;;;;5073315;28;20350;-85
2023/06/15 00:19:33;;;;;;;7.60;4.22;;;15.40;99.90;;;;;;5086644;28;20393;-86
2023/06/15 00:21:59;;;;;;;5.43;3.50;;;15.40;99.90;;;;;;5077883;28;20092;-85
2023/06/15 00:24:25;;;;;;;10.15;4.05;;;15.30;99.90;;;;;;5075363;28;20099;-85
2023/06/15 00:26:50;;;;;;;13.70;4.50;;;15.30;99.90;;;;;;5078708;28;20032;-86
2023/06/15 00:29:16;;;;;;;8.43;3.95;;;15.20;99.90;;;;;;5077725;28;20032;-85
2023/06/15 00:31:41;;;;;;;9.13;3.53;;;15.10;99.90;;;;;;5072743;28;20076;-85
2023/06/15 00:34:07;;;;;;;9.38;4.60;;;15.00;99.90;;;;;;5085387;28;20032;-86
2023/06/15 00:36:33;;;;;;;8.82;4.13;;;15.00;99.90;;;;;;5079752;28;20540;-86
2023/06/15 00:38:59;;;;;;;8.95;4.30;;;14.90;99.90;;;;;;5080502;28;20035;-85
2023/06/15 00:41:25;;;;;;;9.13;4.32;;;14.90;99.90;;;;;;5084152;28;20032;-85
2023/06/15 00:43:52;;;;;;;9.60;3.78;;;14.80;99.90;;;;;;5083195;28;20028;-85
2023/06/15 00:46:18;;;;;;;8.60;4.38;;;14.70;99.90;;;;;;5074457;28;20112;-85
2023/06/15 00:48:44;;;;;;;8.02;4.50;;;14.70;99.90;;;;;;5075654;28;20108;-85
2023/06/15 00:51:13;;;;;;;10.55;4.20;;;14.50;99.90;;;;;;5077462;28;20465;-86
2023/06/15 00:53:39;;;;;;;8.98;4.78;;;14.50;99.90;;;;;;5077641;28;20035;-85
2023/06/15 00:56:05;;;;;;;6.35;4.30;;;14.40;99.90;;;;;;5074505;28;20043;-85
2023/06/15 00:58:31;;;;;;;13.95;5.00;;;14.40;99.90;;;;;;5076397;28;20423;-86
2023/06/15 01:00:56;;;;;;;11.70;4.75;;;14.30;99.90;;;;;;5079131;28;20034;-85
2023/06/15 01:03:22;;;;;;;6.70;3.70;;;14.20;99.90;;;;;;5078911;28;20041;-85
2023/06/15 01:05:52;;;;;;;5.50;4.03;;;14.20;99.90;;;;;;5073001;28;20023;-85
2023/06/15 01:08:20;;;;;;;8.18;4.53;;;14.20;99.90;;;;;;5081946;28;20025;-86
2023/06/15 01:10:47;;;;;;;6.97;4.20;;;14.10;99.90;;;;;;5075346;28;20523;-85
2023/06/15 01:13:13;;;;;;;18.38;5.10;;;14.10;99.90;;;;;;5078333;28;20025;-86
2023/06/15 01:15:42;;;;;;;12.73;4.65;;;14.00;99.90;;;;;;5081837;28;20447;-86
2023/06/15 01:18:08;;;;;;;10.55;4.85;;;14.00;99.90;;;;;;5081083;28;20477;-86
2023/06/15 01:20:39;;;;;;;12.30;5.47;;;13.90;99.90;;;;;;5078990;28;20086;-86
2023/06/15 01:23:13;;;;;;;11.10;4.95;;;13.90;99.90;;;;;;5068874;28;20044;-86
2023/06/15 01:25:44;;;;;;;17.20;4.95;;;13.80;99.90;;;;;;5074902;28;20039;-85
2023/06/15 01:28:12;;;;;;;10.25;5.45;;;13.70;99.90;;;;;;5081101;28;20043;-85
2023/06/15 01:30:44;;;;;;;13.73;5.25;;;13.70;99.90;;;;;;5077898;28;20043;-85
2023/06/15 01:33:14;;;;;;;8.80;4.57;;;13.70;99.90;;;;;;5078616;28;20048;-85
2023/06/15 01:35:40;;;;;;;12.75;5.00;;;13.70;99.90;;;;;;5080740;28;20119;-86
2023/06/15 01:38:07;;;;;;;8.80;4.57;;;13.60;99.90;;;;;;5076059;28;20131;-84
2023/06/15 01:40:41;;;;;;;15.50;4.85;;;13.60;99.90;;;;;;5074225;28;20103;-85
2023/06/15 01:43:14;;;;;;;10.60;4.40;;;13.60;99.90;;;;;;5064882;28;20079;-85
2023/06/15 01:45:42;;;;;;;7.53;4.47;;;13.50;99.90;;;;;;5077089;28;20048;-85
2023/06/15 01:48:09;;;;;;;13.32;4.88;;;13.50;99.90;;;;;;5070622;28;20025;-85
2023/06/15 01:50:36;;;;;;;7.25;4.43;;;13.50;99.90;;;;;;5062696;28;20027;-86
2023/06/15 01:53:03;;;;;;;14.65;4.85;;;13.50;99.90;;;;;;5079679;28;20115;-85
2023/06/15 01:55:29;;;;;;;8.55;4.35;;;13.50;99.90;;;;;;5082421;28;20304;-85
2023/06/15 01:57:55;;;;;;;8.68;5.13;;;13.40;99.90;;;;;;5081363;28;20413;-85
2023/06/15 02:00:23;;;;;;;10.40;4.75;;;13.40;99.90;;;;;;5078833;28;20116;-85
2023/06/15 02:02:49;;;;;;;15.77;5.53;;;13.40;99.90;;;;;;5067591;28;20037;-85
2023/06/15 02:05:14;;;;;;;13.05;4.50;;;13.40;99.90;;;;;;5081712;28;20428;-85
2023/06/15 02:07:40;;;;;;;6.20;4.20;;;13.40;99.90;;;;;;5082522;28;20066;-85
2023/06/15 02:10:07;;;;;;;10.40;5.70;;;13.40;99.90;;;;;;5078324;28;20020;-85
2023/06/15 02:12:32;;;;;;;8.82;5.13;;;13.30;99.90;;;;;;5081368;28;20111;-85
2023/06/15 02:15:01;;;;;;;8.48;4.07;;;13.30;99.90;;;;;;5075441;28;20104;-85
2023/06/15 02:17:30;;;;;;;13.68;4.18;;;13.30;99.90;;;;;;5077583;28;20111;-86
2023/06/15 02:19:56;;;;;;;9.85;4.88;;;13.30;99.90;;;;;;5083384;28;20054;-85
2023/06/15 02:22:22;;;;;;;10.18;5.72;;;13.30;99.90;;;;;;5081545;28;20107;-85
2023/06/15 02:24:47;;;;;;;7.57;4.70;;;13.20;99.90;;;;;;5078694;28;20122;-85
2023/06/15 02:27:13;;;;;;;12.70;4.78;;;13.10;99.90;;;;;;5086959;28;20396;-85
2023/06/15 02:29:39;;;;;;;11.13;5.18;;;13.10;99.90;;;;;;5077253;28;20081;-84
2023/06/15 02:32:04;;;;;;;8.52;4.53;;;13.10;99.90;;;;;;5082454;28;20039;-86
2023/06/15 02:34:30;;;;;;;17.27;5.82;;;13.00;99.90;;;;;;5087300;28;20038;-85
2023/06/15 02:36:56;;;;;;;9.05;5.30;;;13.00;99.90;;;;;;5070245;28;20059;-85
2023/06/15 02:39:22;;;;;;;8.13;4.65;;;12.90;99.90;;;;;;5086888;28;20024;-85
2023/06/15 02:41:48;;;;;;;12.70;4.95;;;12.80;99.90;;;;;;5084633;28;20069;-85
2023/06/15 02:44:16;;;;;;;6.43;4.25;;;12.80;99.90;;;;;;5073469;28;20055;-85
2023/06/15 02:46:43;;;;;;;11.65;4.60;;;12.70;99.90;;;;;;5077160;28;20122;-85
2023/06/15 02:49:10;;;;;;;10.98;5.25;;;12.60;99.90;;;;;;5079067;28;20032;-85
2023/06/15 02:51:37;;;;;;;10.38;4.82;;;12.60;99.90;;;;;;5069410;28;20466;-86
2023/06/15 02:54:06;;;;;;;11.20;5.32;;;12.50;99.90;;;;;;5076095;28;20044;-86
2023/06/15 02:56:35;;;;;;;10.70;4.75;;;12.50;99.90;;;;;;5074785;28;20073;-85
2023/06/15 02:59:01;;;;;;;13.18;5.18;;;12.50;99.90;;;;;;5084784;28;20427;-85
2023/06/15 03:01:36;;;;;;;11.70;5.07;;;12.40;99.90;;;;;;5078807;28;20314;-85
2023/06/15 03:04:03;;;;;;;13.23;4.97;;;12.40;99.90;;;;;;5086624;28;20397;-85
2023/06/15 03:06:33;;;;;;;13.88;5.07;;;12.40;99.90;;;;;;5071311;28;20035;-85
2023/06/15 03:08:59;;;;;;;21.10;5.80;;;12.40;99.90;;;;;;5075228;28;20031;-86
2023/06/15 03:11:24;;;;;;;7.50;4.32;;;12.40;99.90;;;;;;5078761;28;20390;-85
2023/06/15 03:13:50;;;;;;;10.18;4.65;;;12.30;99.90;;;;;;5075396;28;20149;-85
2023/06/15 03:16:15;;;;;;;7.28;4.88;;;12.30;99.90;;;;;;5066138;28;20039;-86
2023/06/15 03:18:42;;;;;;;6.90;4.68;;;12.30;99.90;;;;;;5075260;28;20460;-85
2023/06/15 03:21:08;;;;;;;11.27;4.90;;;12.30;99.90;;;;;;5071944;28;20079;-85
2023/06/15 03:23:33;;;;;;;11.02;4.65;;;12.30;99.90;;;;;;5074901;28;20029;-85
2023/06/15 03:25:59;;;;;;;8.60;4.85;;;12.20;99.90;;;;;;5075558;28;20031;-85
2023/06/15 03:28:27;;;;;;;10.55;4.93;;;12.20;99.90;;;;;;5085057;28;20024;-85
2023/06/15 03:30:53;;;;;;;8.18;4.63;;;12.20;99.90;;;;;;5076097;28;20114;-85
2023/06/15 03:33:22;;;;;;;14.02;5.00;;;12.20;99.90;;;;;;5073863;28;20020;-85
2023/06/15 03:35:48;;;;;;;8.35;4.90;;;12.20;99.90;;;;;;5071273;28;20381;-85
2023/06/15 03:38:15;;;;;;;7.50;4.90;;;12.20;99.90;;;;;;5070477;28;20029;-85
2023/06/15 03:40:42;;;;;;;5.45;4.20;;;12.20;99.90;;;;;;5070790;28;20485;-85
2023/06/15 03:43:09;;;;;;;9.25;4.95;;;12.20;99.90;;;;;;5078350;28;20381;-84
2023/06/15 03:45:35;;;;;;;7.32;4.65;;;12.20;99.90;;;;;;5076364;28;20048;-84
2023/06/15 03:48:00;;;;;;;13.20;4.63;;;12.20;99.90;;;;;;5079304;28;20449;-88
2023/06/15 03:50:26;;;;;;;8.32;4.30;;;12.20;99.90;;;;;;5075784;28;20036;-87
2023/06/15 03:52:51;;;;;;;16.08;6.43;;;12.30;99.90;;;;;;5077558;28;20116;-86
2023/06/15 03:55:17;;;;;;;15.38;4.78;;;12.30;99.90;;;;;;5076921;28;20591;-86
2023/06/15 03:57:43;;;;;;;11.85;5.70;;;12.30;99.90;;;;;;5076659;28;20386;-86
2023/06/15 04:00:09;;;;;;;5.95;4.15;;;12.30;99.90;;;;;;5074243;28;20044;-86
2023/06/15 04:02:35;;;;;;;5.88;4.50;;;12.40;99.90;;;;;;5073441;28;20035;-86
2023/06/15 04:05:02;;;;;;;7.13;4.15;;;12.30;99.90;;;;;;5075488;28;20033;-86
2023/06/15 04:07:28;;;;;;;9.25;4.90;;;12.40;99.90;;;;;;5076949;28;20043;-86
2023/06/15 04:09:54;;;;;;;6.93;4.40;;;12.50;99.90;;;;;;5078882;28;20055;-86
2023/06/15 04:12:23;;;;;;;7.25;4.75;;;12.50;99.90;;;;;;5075557;28;20048;-83
2023/06/15 04:14:48;;;;;;;9.75;4.43;;;12.60;99.90;;;;;;5073784;28;20044;-87
2023/06/15 04:17:15;;;;;;;9.43;4.80;;;12.60;99.90;;;;;;5078596;28;20032;-86
2023/06/15 04:19:40;;;;;;;6.55;4.72;;;12.60;99.90;;;;;;5072381;28;20033;-86
2023/06/15 04:22:06;;;;;;;10.02;5.05;;;12.60;99.90;;;;;;5079142;28;20405;-84
2023/06/15 04:24:32;;;;;;;9.13;5.07;;;12.70;99.90;;;;;;5078488;28;20377;-86
2023/06/15 04:26:59;;;;;;;12.00;4.70;;;12.80;99.90;;;;;;5074282;28;20036;-87
2023/06/15 04:29:29;;;;;;;11.25;4.90;;;12.80;99.90;;;;;;5077440;28;20039;-84
2023/06/15 04:31:57;;;;;;;7.60;4.53;;;12.90;99.90;;;;;;5066402;28;20047;-86
2023/06/15 04:34:26;;;;;;;9.30;4.30;;;13.00;99.90;;;;;;5070216;28;20037;-85
2023/06/15 04:36:52;;;;;;;12.02;4.50;;;13.10;99.90;;;;;;5078296;28;20051;-86
2023/06/15 04:39:19;;;;;;;9.80;4.82;;;13.20;99.90;;;;;;5076825;28;20035;-86
2023/06/15 04:41:44;;;;;;;9.35;5.28;;;13.30;99.90;;;;;;5080513;28;20024;-86
2023/06/15 04:44:10;;;;;;;9.10;4.53;;;13.50;99.90;;;;;;5073180;28;20739;-86
2023/06/15 04:46:38;;;;;;;17.05;5.60;;;13.60;99.90;;;;;;5069807;28;20027;-86
2023/06/15 04:49:05;;;;;;;10.98;4.85;;;13.70;99.90;;;;;;5076965;28;20031;-85
2023/06/15 04:51:30;;;;;;;12.85;5.05;;;13.80;99.90;;;;;;5064023;28;20462;-86
2023/06/15 04:53:56;;;;;;;11.55;4.82;;;14.00;99.90;;;;;;5065858;28;20044;-85
2023/06/15 04:56:22;;;;;;;12.35;4.90;;;14.10;99.90;;;;;;5068302;28;20836;-85
2023/06/15 04:58:48;;;;;;;8.98;4.70;;;14.20;99.90;;;;;;5081556;28;20070;-86
2023/06/15 05:01:14;;;;;;;7.43;4.78;;;14.40;99.90;;;;;;5075333;28;20431;-86
2023/06/15 05:03:40;;;;;;;10.75;4.88;;;14.50;99.90;;;;;;5073257;28;20079;-86
2023/06/15 05:06:06;;;;;;;15.50;5.35;;;14.50;99.90;;;;;;5071142;28;20393;-86
2023/06/15 05:08:33;;;;;;;14.73;4.97;;;14.60;99.90;;;;;;5071236;28;20089;-86
2023/06/15 05:11:01;;;;;;;30.42;5.40;;;14.70;99.90;;;;;;5085747;28;20469;-86
2023/06/15 05:13:28;;;;;;;17.45;4.88;;;14.80;99.90;;;;;;5080351;28;20024;-86
2023/06/15 05:15:54;;;;;;;15.45;4.85;;;14.80;99.90;;;;;;5080485;28;20040;-86
2023/06/15 05:18:19;;;;;;;21.58;7.47;;;14.90;99.90;;;;;;5082363;28;20094;-86
2023/06/15 05:20:45;;;;;;;11.65;4.53;;;14.90;99.90;;;;;;5063524;28;20111;-86
2023/06/15 05:23:11;;;;;;;16.25;5.18;;;15.00;99.90;;;;;;5078261;28;20554;-86
2023/06/15 05:25:37;;;;;;;14.90;4.97;;;15.10;99.90;;;;;;5077833;28;20023;-85
2023/06/15 05:28:03;;;;;;;16.88;6.07;;;15.10;99.90;;;;;;5081611;28;20392;-86
2023/06/15 05:30:30;;;;;;;7.63;4.45;;;15.20;99.90;;;;;;5080225;28;20436;-86
2023/06/15 05:32:56;;;;;;;18.33;5.57;;;15.30;99.90;;;;;;5072679;28;20272;-86
2023/06/15 05:35:22;;;;;;;21.85;5.30;;;15.30;99.90;;;;;;5070057;28;20037;-85
2023/06/15 05:37:47;;;;;;;18.85;5.32;;;15.30;99.90;;;;;;5076160;28;20392;-85
2023/06/15 05:40:13;;;;;;;10.68;5.43;;;15.40;99.90;;;;;;5078018;28;20035;-86
2023/06/15 05:42:39;;;;;;;7.78;4.82;;;15.40;99.90;;;;;;5070072;28;20021;-85
2023/06/15 05:45:05;;;;;;;14.93;4.53;;;15.40;99.90;;;;;;5077261;28;20059;-87
2023/06/15 05:47:31;;;;;;;10.00;4.85;;;15.40;99.90;;;;;;5072720;28;20021;-85
2023/06/15 05:49:57;;;;;;;22.95;5.05;;;15.50;99.90;;;;;;5072510;28;20028;-86
2023/06/15 05:52:22;;;;;;;17.70;4.68;;;15.50;99.90;;;;;;5068422;28;20460;-86
2023/06/15 05:54:51;;;;;;;23.75;4.82;;;15.50;99.90;;;;;;5072572;28;20044;-86
2023/06/15 05:57:16;;;;;;;7.53;4.47;;;15.50;99.90;;;;;;5077966;28;20035;-85
2023/06/15 05:59:46;;;;;;;15.10;4.55;;;15.50;99.90;;;;;;5070633;28;20107;-87
2023/06/15 06:02:12;;;;;;;17.60;4.85;;;15.60;99.90;;;;;;5074237;28;20029;-86
2023/06/15 06:04:37;;;;;;;13.95;5.00;;;15.60;99.90;;;;;;5069474;28;20147;-86
2023/06/15 06:07:05;;;;;;;13.23;5.32;;;15.60;99.90;;;;;;5063838;28;20401;-86
2023/06/15 06:09:34;;;;;;;17.23;5.07;;;15.60;99.90;;;;;;5077798;28;20052;-87
2023/06/15 06:12:01;;;;;;;22.38;4.53;;;15.70;99.90;;;;;;5076311;28;20114;-88
2023/06/15 06:14:27;;;;;;;10.70;5.22;;;15.70;99.90;;;;;;5072292;28;20032;-84
2023/06/15 06:16:53;;;;;;;16.23;5.10;;;15.80;99.90;;;;;;5071107;28;20028;-86
2023/06/15 06:19:19;;;;;;;14.90;5.82;;;15.80;99.90;;;;;;5068216;28;20012;-87
2023/06/15 06:21:45;;;;;;;12.50;5.03;;;15.90;99.90;;;;;;5077095;28;20032;-88
2023/06/15 06:24:10;;;;;;;18.23;5.30;;;15.90;99.90;;;;;;5069208;28;20040;-87
2023/06/15 06:26:36;;;;;;;9.93;4.00;;;15.90;99.90;;;;;;5075731;28;20465;-86
2023/06/15 06:29:03;;;;;;;9.15;4.10;;;15.90;99.90;;;;;;5066287;28;20025;-88
2023/06/15 06:31:28;;;;;;;12.77;4.32;;;16.00;99.90;;;;;;5075005;28;20040;-88
2023/06/15 06:33:57;;;;;;;11.10;4.97;;;16.10;99.90;;;;;;5073865;28;20032;-86
2023/06/15 06:36:25;;;;;;;14.50;4.10;;;16.10;99.90;;;;;;5074170;28;20485;-87
2023/06/15 06:38:51;;;;;;;10.60;4.00;;;16.10;99.90;;;;;;5072217;28;20031;-86
2023/06/15 06:41:16;;;;;;;6.47;4.13;;;16.20;99.90;;;;;;5072175;28;20025;-86
2023/06/15 06:43:42;;;;;;;12.23;4.22;;;16.30;99.90;;;;;;5077862;28;20228;-86
2023/06/15 06:46:07;;;;;;;11.18;4.10;;;16.30;99.90;;;;;;5073340;28;20656;-86
2023/06/15 06:48:33;;;;;;;13.18;4.10;;;16.30;99.90;;;;;;5072947;28;20025;-86
2023/06/15 06:50:59;;;;;;;23.75;5.28;;;16.40;99.90;;;;;;5069342;28;20115;-86
2023/06/15 06:53:25;;;;;;;6.47;4.40;;;16.40;99.90;;;;;;5069231;28;20031;-86
2023/06/15 06:55:50;;;;;;;14.80;4.10;;;16.40;99.90;;;;;;5079139;28;20041;-85
2023/06/15 06:58:16;;;;;;;7.25;4.15;;;16.50;99.90;;;;;;5070839;28;20058;-85
2023/06/15 07:00:41;;;;;;;28.92;4.50;;;16.50;99.90;;;;;;5064761;28;20074;-85
2023/06/15 07:03:07;;;;;;;10.73;4.18;;;16.60;99.90;;;;;;5075376;28;20119;-85
2023/06/15 07:05:33;;;;;;;14.27;4.40;;;16.70;99.90;;;;;;5070460;28;20024;-85
2023/06/15 07:07:59;;;;;;;6.68;3.85;;;16.70;99.90;;;;;;5072771;28;20448;-85
2023/06/15 07:10:24;;;;;;;15.63;3.75;;;16.80;99.90;;;;;;5073198;28;20089;-86
2023/06/15 07:12:54;;;;;;;10.90;3.70;;;16.80;99.90;;;;;;5079090;28;20469;-85
2023/06/15 07:15:22;;;;;;;7.78;3.75;;;16.80;99.90;;;;;;5083504;28;20397;-85
2023/06/15 07:17:47;;;;;;;13.18;4.65;;;16.90;99.90;;;;;;5073770;28;20036;-87
2023/06/15 07:20:13;;;;;;;13.75;4.15;;;16.90;99.90;;;;;;5079781;28;20371;-86
2023/06/15 07:22:38;;;;;;;10.82;4.07;;;17.00;99.90;;;;;;5082532;28;20027;-86
2023/06/15 07:25:04;;;;;;;12.02;4.38;;;17.00;99.90;;;;;;5072124;28;20082;-86
2023/06/15 07:27:30;;;;;;;8.23;3.88;;;17.10;99.90;;;;;;5075776;28;20090;-84
2023/06/15 07:29:55;;;;;;;8.32;3.72;;;17.10;99.90;;;;;;5074069;28;20080;-86
2023/06/15 07:32:21;;;;;;;7.90;3.75;;;17.10;99.90;;;;;;5082136;28;20075;-86
2023/06/15 07:34:46;;;;;;;7.70;3.72;;;17.20;99.90;;;;;;5085173;28;20481;-86
2023/06/15 07:37:12;;;;;;;9.30;4.25;;;17.20;99.90;;;;;;5087348;28;20062;-85
2023/06/15 07:39:37;;;;;;;8.02;3.90;;;17.20;99.90;;;;;;5072876;28;20036;-85
2023/06/15 07:42:03;;;;;;;9.20;4.63;;;17.30;99.90;;;;;;5083674;28;20431;-86
2023/06/15 07:44:29;;;;;;;10.05;4.13;;;17.40;99.90;;;;;;5081135;28;20020;-86
2023/06/15 07:46:55;;;;;;;10.25;3.88;;;17.40;99.90;;;;;;5084662;28;20033;-87
2023/06/15 07:49:20;;;;;;;10.82;3.88;;;17.50;99.90;;;;;;5083927;28;20032;-86
2023/06/15 07:51:46;;;;;;;9.25;3.90;;;17.60;99.90;;;;;;5078076;28;20024;-85
2023/06/15 07:54:11;;;;;;;12.02;3.70;;;17.60;99.90;;;;;;5088453;28;20078;-86
2023/06/15 07:56:37;;;;;;;11.77;3.60;;;17.60;99.90;;;;;;5083766;28;20035;-87
2023/06/15 07:59:03;;;;;;;7.53;3.45;;;17.70;99.90;;;;;;5083162;28;20043;-86
2023/06/15 08:01:28;;;;;;;8.50;3.13;;;17.70;99.90;;;;;;5085109;28;20068;-86
2023/06/15 08:03:54;;;;;;;10.38;3.70;;;17.70;99.90;;;;;;5079903;28;20461;-85
2023/06/15 08:06:20;;;;;;;5.38;3.65;;;17.80;99.90;;;;;;5070502;28;20047;-87
2023/06/15 08:08:45;;;;;;;4.55;3.40;;;17.80;99.90;;;;;;5080821;28;20404;-84
2023/06/15 08:11:11;;;;;;;6.97;3.95;;;17.90;99.90;;;;;;5075680;28;20078;-86
2023/06/15 08:13:40;;;;;;;7.65;3.70;;;17.90;99.90;;;;;;5076972;28;20110;-85
2023/06/15 08:16:06;;;;;;;9.10;3.60;;;17.90;99.90;;;;;;5074340;28;20020;-87
2023/06/15 08:18:32;;;;;;;12.35;3.65;;;17.90;99.90;;;;;;5079258;28;20027;-86
2023/06/15 08:20:58;;;;;;;8.38;3.95;;;18.00;99.90;;;;;;5081093;28;20032;-86
2023/06/15 08:23:23;;;;;;;8.80;4.00;;;17.90;99.90;;;;;;5071092;28;20454;-85
2023/06/15 08:26:02;;;;;;;4.15;2.88;;;18.00;99.90;;;;;;5080609;28;20040;-87
2023/06/15 08:28:28;;;;;;;9.43;3.88;;;18.00;99.90;;;;;;5073126;28;20028;-85
2023/06/15 08:30:53;;;;;;;15.40;5.30;;;18.10;99.90;;;;;;5088192;28;20032;-87
2023/06/15 08:33:19;;;;;;;4.80;3.08;;;18.20;99.90;;;;;;5089360;28;20439;-87
2023/06/15 08:35:45;;;;;;;11.60;3.35;;;18.30;99.90;;;;;;5086202;28;20036;-86
2023/06/15 08:38:11;;;;;;;7.20;3.50;;;18.30;99.90;;;;;;5083034;28;20025;-85
2023/06/15 08:40:36;;;;;;;14.93;3.88;;;18.40;99.90;;;;;;5087515;28;20070;-87
2023/06/15 08:43:05;;;;;;;14.82;4.47;;;18.50;99.90;;;;;;5087465;28;20028;-86
2023/06/15 08:45:41;;;;;;;9.88;3.78;;;18.50;99.90;;;;;;5078489;28;20036;-86
2023/06/15 08:48:09;;;;;;;8.98;3.50;;;18.50;99.90;;;;;;5068865;28;20400;-86
2023/06/15 08:50:41;;;;;;;5.78;3.20;;;18.40;99.90;;;;;;5074356;28;20032;-85
2023/06/15 08:53:07;;;;;;;9.05;3.28;;;18.40;99.90;;;;;;5072027;28;20064;-86
2023/06/15 08:55:33;;;;;;;8.52;3.42;;;18.40;99.90;;;;;;5077202;28;20127;-86
2023/06/15 08:57:59;;;;;;;6.85;3.63;;;18.40;99.90;;;;;;5085279;28;20086;-86
2023/06/15 09:00:25;;;;;;;9.40;3.78;;;18.50;99.90;;;;;;5088314;28;20035;-85
2023/06/15 09:02:53;;;;;;;7.75;3.92;;;18.50;99.90;;;;;;5080386;28;20029;-84
2023/06/15 09:05:19;;;;;;;8.38;3.60;;;18.60;99.90;;;;;;5081790;28;20032;-85
2023/06/15 09:07:45;;;;;;;9.52;3.35;;;18.70;99.90;;;;;;5088107;28;20051;-86
2023/06/15 09:10:21;;;;;;;15.95;3.80;;;18.80;99.90;;;;;;5078575;28;20035;-86
2023/06/15 09:12:49;;;;;;;9.48;3.95;;;18.90;99.90;;;;;;5072411;28;20032;-86
2023/06/15 09:15:23;;;;;;;12.07;3.53;;;18.90;99.90;;;;;;5088078;28;20048;-87
2023/06/15 09:18:02;;;;;;;7.82;4.07;;;19.00;99.90;;;;;;5082576;28;20051;-86
2023/06/15 09:20:31;;;;;;;7.70;3.25;;;19.00;99.90;;;;;;5079940;28;20663;-87
2023/06/15 09:22:59;;;;;;;9.02;3.60;;;19.00;99.90;;;;;;5074446;28;20037;-86
2023/06/15 09:25:25;;;;;;;13.55;3.75;;;19.10;99.90;;;;;;5079029;28;20020;-87
2023/06/15 09:27:57;;;;;;;8.73;3.78;;;19.10;99.90;;;;;;5086036;28;20035;-86
2023/06/15 09:30:42;;;;;;;8.70;3.90;;;19.20;99.90;;;;;;5058058;28;20028;-86
2023/06/15 09:33:12;;;;;;;9.73;3.00;;;19.30;99.90;;;;;;5071090;28;20519;-86
2023/06/15 09:35:53;;;;;;;14.35;4.45;;;19.40;99.90;;;;;;5084321;28;20055;-86
2023/06/15 09:38:22;;;;;;;9.13;3.47;;;19.40;99.90;;;;;;5081247;28;20028;-84
2023/06/15 09:40:48;;;;;;;6.68;3.45;;;19.50;95.80;;;;;;5075696;28;20028;-87
2023/06/15 09:43:14;;;;;;;8.30;3.40;;;19.60;95.80;;;;;;5080743;28;20035;-85
2023/06/15 09:46:12;;;;;;;12.52;3.83;;;19.70;99.90;;;;;;5081269;28;20115;-85
2023/06/15 09:48:39;;;;;;;11.75;3.65;;;19.80;91.20;;;;;;5061259;28;20032;-85
2023/06/15 09:51:07;;;;;;;12.77;3.78;;;19.80;91.70;;;;;;5071030;28;20035;-85
2023/06/15 09:53:33;;;;;;;7.18;3.67;;;19.80;95.10;;;;;;5085803;28;20469;-85
2023/06/15 09:56:00;;;;;;;12.55;3.42;;;19.90;95.10;;;;;;5071101;28;20044;-86
2023/06/15 09:58:26;;;;;;;12.73;3.70;;;20.00;91.50;;;;;;5076000;28;20039;-85
2023/06/15 10:00:57;;;;;;;4.40;3.15;;;20.20;90.20;;;;;;5070014;28;20024;-84
2023/06/15 10:03:24;;;;;;;12.15;2.83;;;20.30;90.80;;;;;;5065477;28;20059;-85
2023/06/15 10:05:54;;;;;;;8.13;3.85;;;20.30;88.00;;;;;;5070900;28;20028;-85
2023/06/15 10:08:26;;;;;;;14.70;3.60;;;20.30;85.60;;;;;;5072048;28;20028;-86
2023/06/15 10:10:56;;;;;;;7.38;3.45;;;20.40;89.50;;;;;;5064963;28;20090;-86
2023/06/15 10:13:44;;;;;;;7.93;4.15;;;20.50;79.30;;;;;;5062478;28;20122;-85
2023/06/15 10:16:13;;;;;;;3.10;2.80;;;20.50;73.40;;;;;;5085188;28;20064;-85
2023/06/15 10:18:39;;;;;;;10.75;4.22;;;20.50;72.30;;;;;;5083143;28;20024;-84
2023/06/15 10:21:11;;;;;;;10.95;3.35;;;20.50;73.80;;;;;;5085481;28;20430;-85
2023/06/15 10:23:40;;;;;;;8.25;3.70;;;20.60;74.40;;;;;;5087191;28;20031;-85
2023/06/15 10:26:06;;;;;;;8.52;3.55;;;20.70;72.80;;;;;;5075747;28;20092;-86
2023/06/15 10:28:36;;;;;;;9.60;4.57;;;20.70;73.90;;;;;;5073871;28;20031;-84
2023/06/15 10:31:06;;;;;;;13.05;3.42;;;20.70;71.40;;;;;;5061947;28;20056;-85
2023/06/15 10:33:41;;;;;;;12.40;3.63;;;20.90;80.40;;;;;;5075153;28;20477;-85
2023/06/15 10:36:23;;;;;;;9.37;3.23;;;21.00;71.70;;;;;;5068887;28;20071;-85
2023/06/15 10:38:56;;;;;;;5.90;3.10;;;21.00;69.00;;;;;;5063072;28;20031;-86
2023/06/15 10:41:21;;;;;;;7.68;3.40;;;21.00;68.60;;;;;;5087934;28;20065;-84
2023/06/15 10:43:59;;;;;;;9.13;3.00;;;21.10;65.90;;;;;;5080426;28;20028;-86
2023/06/15 10:46:30;;;;;;;8.73;2.97;;;20.90;64.50;;;;;;5077123;28;20063;-85
2023/06/15 10:49:05;;;;;;;10.13;3.40;;;20.90;64.70;;;;;;5082240;28;20035;-84
2023/06/15 10:51:35;;;;;;;6.43;3.60;;;20.90;61.70;;;;;;5083499;28;20025;-86
2023/06/15 10:54:03;;;;;;;10.55;3.80;;;20.90;63.30;;;;;;5084290;28;20088;-84
2023/06/15 10:56:29;;;;;;;11.60;3.55;;;20.80;60.60;;;;;;5088591;28;20358;-85
2023/06/15 10:58:59;;;;;;;6.57;2.88;;;20.80;60.10;;;;;;5085628;28;20020;-84
2023/06/15 11:01:26;;;;;;;7.22;3.00;;;20.70;61.50;;;;;;5089477;28;20024;-85
2023/06/15 11:03:56;;;;;;;9.15;4.10;;;20.70;62.50;;;;;;5087272;28;20040;-86
2023/06/15 11:06:30;;;;;;;8.73;3.53;;;20.80;61.00;;;;;;5079829;28;20047;-84
2023/06/15 11:09:01;;;;;;;18.23;3.83;;;20.90;61.70;;;;;;5087707;28;20473;-84
2023/06/15 11:11:34;;;;;;;7.32;2.95;;;21.00;61.10;;;;;;5071991;28;20078;-85
2023/06/15 11:14:04;;;;;;;4.55;3.25;;;21.10;60.20;;;;;;5075035;28;20035;-85
2023/06/15 11:16:34;;;;;;;6.57;3.63;;;21.20;58.90;;;;;;5090383;28;20039;-85
2023/06/15 11:19:11;;;;;;;8.13;2.97;;;21.30;57.80;;;;;;5090398;28;20030;-86
2023/06/15 11:21:41;;;;;;;5.85;3.25;;;21.40;57.50;;;;;;5078813;28;20579;-84
2023/06/15 11:24:13;;;;;;;7.75;3.45;;;21.40;56.30;;;;;;5087581;28;20032;-86
2023/06/15 11:26:44;;;;;;;5.45;3.40;;;21.50;56.10;;;;;;5062204;28;20021;-84
2023/06/15 11:29:12;;;;;;;5.43;3.13;;;21.50;56.70;;;;;;5069665;28;20658;-85
2023/06/15 11:31:40;;;;;;;6.15;2.95;;;21.50;57.30;;;;;;5072610;28;20052;-85
2023/06/15 11:34:10;;;;;;;7.25;3.85;;;21.50;56.90;;;;;;5069619;28;20039;-84
2023/06/15 11:36:36;;;;;;;12.70;3.63;;;21.60;58.90;;;;;;5070603;28;20029;-85
2023/06/15 11:39:04;;;;;;;11.80;3.30;;;21.60;57.60;;;;;;5077071;28;20393;-85
2023/06/15 11:41:30;;;;;;;10.10;3.45;;;21.70;58.50;;;;;;5087408;28;20135;-85
2023/06/15 11:43:57;;;;;;;11.05;3.28;;;21.70;56.70;;;;;;5082488;28;20122;-86
2023/06/15 11:46:24;;;;;;;10.75;4.15;;;21.70;56.10;;;;;;5072213;28;20028;-86
2023/06/15 11:48:56;;;;;;;7.88;3.45;;;21.90;55.70;;;;;;5067379;28;20115;-85
2023/06/15 11:51:25;;;;;;;8.00;3.30;;;22.00;57.70;;;;;;5066223;28;20111;-84
2023/06/15 11:53:52;;;;;;;8.23;2.97;;;22.00;55.60;;;;;;5086559;28;20050;-83
2023/06/15 11:56:18;;;;;;;10.38;3.97;;;22.00;55.00;;;;;;5079264;28;20115;-85
2023/06/15 11:58:47;;;;;;;6.00;3.63;;;22.00;53.60;;;;;;5083743;28;20039;-84
2023/06/15 12:01:14;;;;;;;5.70;3.80;;;22.10;53.10;;;;;;5075512;28;20039;-85
2023/06/15 12:03:47;;;;;;;7.53;3.58;;;22.10;52.10;;;;;;5078606;28;20028;-84
2023/06/15 12:06:17;;;;;;;6.03;3.28;;;22.10;52.50;;;;;;5081844;28;20032;-85
2023/06/15 12:08:50;;;;;;;7.60;3.33;;;22.00;52.30;;;;;;5080620;28;20016;-85
2023/06/15 12:11:24;;;;;;;6.25;3.10;;;22.00;54.30;;;;;;5085166;28;20035;-86
2023/06/15 12:13:50;;;;;;;7.63;3.28;;;22.10;53.70;;;;;;5073031;28;20040;-84
2023/06/15 12:16:16;;;;;;;9.25;4.60;;;22.10;53.20;;;;;;5083528;28;20448;-86
2023/06/15 12:18:42;;;;;;;7.15;4.10;;;21.90;53.70;;;;;;5085710;28;20019;-85
2023/06/15 12:21:07;;;;;;;17.25;3.90;;;21.90;54.70;;;;;;5078225;28;20024;-85
2023/06/15 12:23:33;;;;;;;7.35;4.15;;;21.90;55.40;;;;;;5087161;28;20177;-85
2023/06/15 12:26:01;;;;;;;5.95;4.25;;;22.00;55.00;;;;;;5088448;28;20051;-85
2023/06/15 12:28:27;;;;;;;9.43;3.47;;;22.00;53.80;;;;;;5065449;28;20432;-85
2023/06/15 12:31:05;;;;;;;10.90;3.80;;;22.00;54.40;;;;;;5085081;28;20401;-85
2023/06/15 12:33:34;;;;;;;9.57;3.65;;;22.00;53.70;;;;;;5087115;28;20032;-85
2023/06/15 12:36:01;;;;;;;7.07;4.25;;;22.10;54.90;;;;;;5082067;28;20494;-86
2023/06/15 12:38:28;;;;;;;14.18;4.35;;;22.20;54.30;;;;;;5081664;28;20122;-84
2023/06/15 12:40:57;;;;;;;6.05;3.90;;;22.40;53.20;;;;;;5069232;28;20125;-84
2023/06/15 12:43:26;;;;;;;9.95;4.13;;;22.50;52.10;;;;;;5079589;28;20031;-86